sensor_id;sensor_type;location;lat;lon;timestamp;temperature;humidity
10278;DHT22;5184;51.376;7.148;2023-05-10T00:02:15;12.60;99.90
10278;DHT22;5184;51.376;7.148;2023-05-10T00:04:42;12.70;99.90
10278;DHT22;5184;51.376;7.148;2023-05-10T00:07:08;12.70;99.90
10278;DHT22;5184;51.376;7.148;2023-05-10T00:09:35;12.60;99.90
10278;DHT22;5184;51.376;7.148;2023-05-10T00:12:02;12.60;99.90
10278;DHT22;5184;51.376;7.148;2023-05-10T00:14:30;12.60;99.90
10278;DHT22;5184;51.376;7.148;2023-05-10T00:16:57;12.60;99.90
10278;DHT22;5184;51.376;7.148;2023-05-10T00:19:24;12.60;99.90
10278;DHT22;5184;51.376;7.148;2023-05-10T00:21:50;12.60;99.90
10278;DHT22;5184;51.376;7.148;2023-05-10T00:24:17;12.60;99.90
10278;DHT22;5184;51.376;7.148;2023-05-10T00:26:43;12.60;99.90
10278;DHT22;5184;51.376;7.148;2023-05-10T00:29:10;12.60;99.90
10278;DHT22;5184;51.376;7.148;2023-05-10T00:31:37;12.50;99.90
10278;DHT22;5184;51.376;7.148;2023-05-10T00:34:05;12.60;99.90
10278;DHT22;5184;51.376;7.148;2023-05-10T00:36:31;12.60;99.90
10278;DHT22;5184;51.376;7.148;2023-05-10T00:38:58;12.60;99.90
10278;DHT22;5184;51.376;7.148;2023-05-10T00:41:24;12.60;99.90
10278;DHT22;5184;51.376;7.148;2023-05-10T00:43:51;12.60;99.90
10278;DHT22;5184;51.376;7.148;2023-05-10T00:46:18;12.60;99.90
10278;DHT22;5184;51.376;7.148;2023-05-10T00:48:46;12.60;99.90
10278;DHT22;5184;51.376;7.148;2023-05-10T00:51:13;12.60;99.90
10278;DHT22;5184;51.376;7.148;2023-05-10T00:53:41;12.60;99.90
10278;DHT22;5184;51.376;7.148;2023-05-10T00:56:08;12.60;99.90
10278;DHT22;5184;51.376;7.148;2023-05-10T00:58:36;12.60;99.90
10278;DHT22;5184;51.376;7.148;2023-05-10T01:01:04;12.60;99.90
10278;DHT22;5184;51.376;7.148;2023-05-10T01:03:30;12.60;99.90
10278;DHT22;5184;51.376;7.148;2023-05-10T01:05:56;12.60;99.90
10278;DHT22;5184;51.376;7.148;2023-05-10T01:08:23;12.60;99.90
10278;DHT22;5184;51.376;7.148;2023-05-10T01:10:50;12.60;99.90
10278;DHT22;5184;51.376;7.148;2023-05-10T01:13:18;12.60;99.90
10278;DHT22;5184;51.376;7.148;2023-05-10T01:15:44;12.60;99.90
10278;DHT22;5184;51.376;7.148;2023-05-10T01:18:10;12.60;99.90
10278;DHT22;5184;51.376;7.148;2023-05-10T01:20:39;12.60;99.90
10278;DHT22;5184;51.376;7.148;2023-05-10T01:23:26;12.50;99.90
10278;DHT22;5184;51.376;7.148;2023-05-10T01:25:54;12.50;99.90
10278;DHT22;5184;51.376;7.148;2023-05-10T01:28:36;12.40;99.90
10278;DHT22;5184;51.376;7.148;2023-05-10T01:31:08;12.40;99.90
10278;DHT22;5184;51.376;7.148;2023-05-10T01:33:40;12.40;99.90
10278;DHT22;5184;51.376;7.148;2023-05-10T01:36:13;12.40;99.90
10278;DHT22;5184;51.376;7.148;2023-05-10T01:38:53;12.40;99.90
10278;DHT22;5184;51.376;7.148;2023-05-10T01:41:36;12.40;99.90
10278;DHT22;5184;51.376;7.148;2023-05-10T01:44:05;12.30;99.90
10278;DHT22;5184;51.376;7.148;2023-05-10T01:46:35;12.40;99.90
10278;DHT22;5184;51.376;7.148;2023-05-10T01:49:00;12.30;99.90
10278;DHT22;5184;51.376;7.148;2023-05-10T01:51:27;12.30;99.90
10278;DHT22;5184;51.376;7.148;2023-05-10T01:54:00;12.30;99.90
10278;DHT22;5184;51.376;7.148;2023-05-10T01:56:21;12.30;99.90
10278;DHT22;5184;51.376;7.148;2023-05-10T01:58:47;12.30;99.90
10278;DHT22;5184;51.376;7.148;2023-05-10T02:01:14;12.30;99.90
10278;DHT22;5184;51.376;7.148;2023-05-10T02:03:40;12.30;99.90
10278;DHT22;5184;51.376;7.148;2023-05-10T02:06:07;12.30;99.90
10278;DHT22;5184;51.376;7.148;2023-05-10T02:08:34;12.30;99.90
10278;DHT22;5184;51.376;7.148;2023-05-10T02:11:01;12.40;99.90
10278;DHT22;5184;51.376;7.148;2023-05-10T02:13:27;12.40;99.90
10278;DHT22;5184;51.376;7.148;2023-05-10T02:15:55;12.30;99.90
10278;DHT22;5184;51.376;7.148;2023-05-10T02:18:22;12.40;99.90
10278;DHT22;5184;51.376;7.148;2023-05-10T02:20:49;12.30;99.90
10278;DHT22;5184;51.376;7.148;2023-05-10T02:23:15;12.30;99.90
10278;DHT22;5184;51.376;7.148;2023-05-10T02:25:42;12.30;99.90
10278;DHT22;5184;51.376;7.148;2023-05-10T02:28:09;12.30;99.90
10278;DHT22;5184;51.376;7.148;2023-05-10T02:30:36;12.30;99.90
10278;DHT22;5184;51.376;7.148;2023-05-10T02:33:03;12.40;99.90
10278;DHT22;5184;51.376;7.148;2023-05-10T02:35:29;12.40;99.90
10278;DHT22;5184;51.376;7.148;2023-05-10T02:37:56;12.40;99.90
10278;DHT22;5184;51.376;7.148;2023-05-10T02:40:24;12.40;99.90
10278;DHT22;5184;51.376;7.148;2023-05-10T02:42:50;12.40;99.90
10278;DHT22;5184;51.376;7.148;2023-05-10T02:45:19;12.40;99.90
10278;DHT22;5184;51.376;7.148;2023-05-10T02:47:44;12.40;99.90
10278;DHT22;5184;51.376;7.148;2023-05-10T02:50:11;12.40;99.90
10278;DHT22;5184;51.376;7.148;2023-05-10T02:52:42;12.40;99.90
10278;DHT22;5184;51.376;7.148;2023-05-10T02:55:08;12.40;99.90
10278;DHT22;5184;51.376;7.148;2023-05-10T02:57:35;12.40;99.90
10278;DHT22;5184;51.376;7.148;2023-05-10T03:00:02;12.40;99.90
10278;DHT22;5184;51.376;7.148;2023-05-10T03:02:28;12.30;99.90
10278;DHT22;5184;51.376;7.148;2023-05-10T03:04:55;12.30;99.90
10278;DHT22;5184;51.376;7.148;2023-05-10T03:07:21;12.30;99.90
10278;DHT22;5184;51.376;7.148;2023-05-10T03:09:48;12.20;99.90
10278;DHT22;5184;51.376;7.148;2023-05-10T03:12:19;12.30;99.90
10278;DHT22;5184;51.376;7.148;2023-05-10T03:15:01;12.30;99.90
10278;DHT22;5184;51.376;7.148;2023-05-10T03:17:42;12.20;99.90
10278;DHT22;5184;51.376;7.148;2023-05-10T03:20:10;12.20;99.90
10278;DHT22;5184;51.376;7.148;2023-05-10T03:22:38;12.20;99.90
10278;DHT22;5184;51.376;7.148;2023-05-10T03:25:05;12.20;99.90
10278;DHT22;5184;51.376;7.148;2023-05-10T03:27:31;12.20;99.90
10278;DHT22;5184;51.376;7.148;2023-05-10T03:29:58;12.20;99.90
10278;DHT22;5184;51.376;7.148;2023-05-10T03:32:25;12.20;99.90
10278;DHT22;5184;51.376;7.148;2023-05-10T03:34:52;12.20;99.90
10278;DHT22;5184;51.376;7.148;2023-05-10T03:37:18;12.20;99.90
10278;DHT22;5184;51.376;7.148;2023-05-10T03:39:45;12.20;99.90
10278;DHT22;5184;51.376;7.148;2023-05-10T03:42:12;12.20;99.90
10278;DHT22;5184;51.376;7.148;2023-05-10T03:44:40;12.20;99.90
10278;DHT22;5184;51.376;7.148;2023-05-10T03:47:07;12.20;99.90
10278;DHT22;5184;51.376;7.148;2023-05-10T03:49:34;12.20;99.90
10278;DHT22;5184;51.376;7.148;2023-05-10T03:52:01;12.20;99.90
10278;DHT22;5184;51.376;7.148;2023-05-10T03:54:28;12.20;99.90
10278;DHT22;5184;51.376;7.148;2023-05-10T03:56:54;12.20;99.90
10278;DHT22;5184;51.376;7.148;2023-05-10T03:59:21;12.30;99.90
10278;DHT22;5184;51.376;7.148;2023-05-10T04:01:48;12.30;99.90
10278;DHT22;5184;51.376;7.148;2023-05-10T04:04:16;12.30;99.90
10278;DHT22;5184;51.376;7.148;2023-05-10T04:09:14;12.30;99.90
10278;DHT22;5184;51.376;7.148;2023-05-10T04:11:41;12.30;99.90
10278;DHT22;5184;51.376;7.148;2023-05-10T04:14:07;12.30;99.90
10278;DHT22;5184;51.376;7.148;2023-05-10T04:16:34;12.30;99.90
10278;DHT22;5184;51.376;7.148;2023-05-10T04:19:01;12.20;99.90
10278;DHT22;5184;51.376;7.148;2023-05-10T04:21:29;12.30;99.90
10278;DHT22;5184;51.376;7.148;2023-05-10T04:23:55;12.20;99.90
10278;DHT22;5184;51.376;7.148;2023-05-10T04:26:22;12.30;99.90
10278;DHT22;5184;51.376;7.148;2023-05-10T04:28:48;12.30;99.90
10278;DHT22;5184;51.376;7.148;2023-05-10T04:31:16;12.20;99.90
10278;DHT22;5184;51.376;7.148;2023-05-10T04:33:43;12.20;99.90
10278;DHT22;5184;51.376;7.148;2023-05-10T04:36:10;12.20;99.90
10278;DHT22;5184;51.376;7.148;2023-05-10T04:38:36;12.20;99.90
10278;DHT22;5184;51.376;7.148;2023-05-10T04:41:05;12.20;99.90
10278;DHT22;5184;51.376;7.148;2023-05-10T04:43:31;12.20;99.90
10278;DHT22;5184;51.376;7.148;2023-05-10T04:45:58;12.20;99.90
10278;DHT22;5184;51.376;7.148;2023-05-10T04:48:24;12.30;99.90
10278;DHT22;5184;51.376;7.148;2023-05-10T04:50:52;12.30;99.90
10278;DHT22;5184;51.376;7.148;2023-05-10T04:53:18;12.30;99.90
10278;DHT22;5184;51.376;7.148;2023-05-10T04:55:45;12.30;99.90
10278;DHT22;5184;51.376;7.148;2023-05-10T04:58:11;12.30;99.90
10278;DHT22;5184;51.376;7.148;2023-05-10T05:00:39;12.30;99.90
10278;DHT22;5184;51.376;7.148;2023-05-10T05:03:05;12.30;99.90
10278;DHT22;5184;51.376;7.148;2023-05-10T05:05:32;12.40;99.90
10278;DHT22;5184;51.376;7.148;2023-05-10T05:07:59;12.40;99.90
10278;DHT22;5184;51.376;7.148;2023-05-10T05:10:27;12.40;99.90
10278;DHT22;5184;51.376;7.148;2023-05-10T05:12:53;12.40;99.90
10278;DHT22;5184;51.376;7.148;2023-05-10T05:15:20;12.40;99.90
10278;DHT22;5184;51.376;7.148;2023-05-10T05:17:47;12.40;99.90
10278;DHT22;5184;51.376;7.148;2023-05-10T05:20:13;12.40;99.90
10278;DHT22;5184;51.376;7.148;2023-05-10T05:22:40;12.50;99.90
10278;DHT22;5184;51.376;7.148;2023-05-10T05:25:07;12.50;99.90
10278;DHT22;5184;51.376;7.148;2023-05-10T05:27:33;12.50;99.90
10278;DHT22;5184;51.376;7.148;2023-05-10T05:30:01;12.50;99.90
10278;DHT22;5184;51.376;7.148;2023-05-10T05:32:27;12.50;99.90
10278;DHT22;5184;51.376;7.148;2023-05-10T05:34:54;12.60;99.90
10278;DHT22;5184;51.376;7.148;2023-05-10T05:37:20;12.50;99.90
10278;DHT22;5184;51.376;7.148;2023-05-10T05:39:48;12.60;99.90
10278;DHT22;5184;51.376;7.148;2023-05-10T05:42:15;12.60;99.90
10278;DHT22;5184;51.376;7.148;2023-05-10T05:44:42;12.60;99.90
10278;DHT22;5184;51.376;7.148;2023-05-10T05:47:10;12.70;99.90
10278;DHT22;5184;51.376;7.148;2023-05-10T05:49:36;12.70;99.90
10278;DHT22;5184;51.376;7.148;2023-05-10T05:52:03;12.70;99.90
10278;DHT22;5184;51.376;7.148;2023-05-10T05:54:30;12.70;99.90
10278;DHT22;5184;51.376;7.148;2023-05-10T05:56:56;12.70;99.90
10278;DHT22;5184;51.376;7.148;2023-05-10T05:59:23;12.50;99.90
10278;DHT22;5184;51.376;7.148;2023-05-10T06:01:49;12.70;99.90
10278;DHT22;5184;51.376;7.148;2023-05-10T06:04:17;12.80;99.90
10278;DHT22;5184;51.376;7.148;2023-05-10T06:06:43;12.80;99.90
10278;DHT22;5184;51.376;7.148;2023-05-10T06:09:10;12.80;99.90
10278;DHT22;5184;51.376;7.148;2023-05-10T06:11:37;12.90;99.90
10278;DHT22;5184;51.376;7.148;2023-05-10T06:14:04;13.00;99.90
10278;DHT22;5184;51.376;7.148;2023-05-10T06:16:31;13.10;99.90
10278;DHT22;5184;51.376;7.148;2023-05-10T06:18:58;13.10;99.90
10278;DHT22;5184;51.376;7.148;2023-05-10T06:21:25;13.10;99.90
10278;DHT22;5184;51.376;7.148;2023-05-10T06:23:51;13.10;99.90
10278;DHT22;5184;51.376;7.148;2023-05-10T06:26:18;13.10;99.90
10278;DHT22;5184;51.376;7.148;2023-05-10T06:28:45;13.10;99.90
10278;DHT22;5184;51.376;7.148;2023-05-10T06:31:12;13.10;99.90
10278;DHT22;5184;51.376;7.148;2023-05-10T06:33:38;13.20;99.90
10278;DHT22;5184;51.376;7.148;2023-05-10T06:36:06;13.30;99.90
10278;DHT22;5184;51.376;7.148;2023-05-10T06:38:33;13.30;99.90
10278;DHT22;5184;51.376;7.148;2023-05-10T06:41:00;13.20;99.90
10278;DHT22;5184;51.376;7.148;2023-05-10T06:43:26;13.30;99.90
10278;DHT22;5184;51.376;7.148;2023-05-10T06:45:53;13.30;99.90
10278;DHT22;5184;51.376;7.148;2023-05-10T06:48:20;13.20;99.90
10278;DHT22;5184;51.376;7.148;2023-05-10T06:50:47;13.20;99.90
10278;DHT22;5184;51.376;7.148;2023-05-10T06:53:13;13.20;99.90
10278;DHT22;5184;51.376;7.148;2023-05-10T06:55:40;13.30;99.90
10278;DHT22;5184;51.376;7.148;2023-05-10T06:58:07;13.40;99.90
10278;DHT22;5184;51.376;7.148;2023-05-10T07:00:35;13.40;99.90
10278;DHT22;5184;51.376;7.148;2023-05-10T07:03:01;13.40;99.90
10278;DHT22;5184;51.376;7.148;2023-05-10T07:05:28;13.40;99.90
10278;DHT22;5184;51.376;7.148;2023-05-10T07:07:54;13.40;99.90
10278;DHT22;5184;51.376;7.148;2023-05-10T07:10:22;13.50;99.90
10278;DHT22;5184;51.376;7.148;2023-05-10T07:12:49;13.60;99.90
10278;DHT22;5184;51.376;7.148;2023-05-10T07:15:16;13.60;99.90
10278;DHT22;5184;51.376;7.148;2023-05-10T07:17:43;13.50;99.90
10278;DHT22;5184;51.376;7.148;2023-05-10T07:20:12;13.50;99.90
10278;DHT22;5184;51.376;7.148;2023-05-10T07:22:38;13.50;99.90
10278;DHT22;5184;51.376;7.148;2023-05-10T07:25:06;13.40;99.90
10278;DHT22;5184;51.376;7.148;2023-05-10T07:27:32;13.40;99.90
10278;DHT22;5184;51.376;7.148;2023-05-10T07:30:00;13.30;99.90
10278;DHT22;5184;51.376;7.148;2023-05-10T07:32:27;13.40;99.90
10278;DHT22;5184;51.376;7.148;2023-05-10T07:34:54;13.30;99.90
10278;DHT22;5184;51.376;7.148;2023-05-10T07:37:20;13.40;99.90
10278;DHT22;5184;51.376;7.148;2023-05-10T07:39:47;13.50;99.90
10278;DHT22;5184;51.376;7.148;2023-05-10T07:42:14;13.50;99.90
10278;DHT22;5184;51.376;7.148;2023-05-10T07:44:41;13.50;99.90
10278;DHT22;5184;51.376;7.148;2023-05-10T07:47:09;13.50;99.90
10278;DHT22;5184;51.376;7.148;2023-05-10T07:49:35;13.50;99.90
10278;DHT22;5184;51.376;7.148;2023-05-10T07:52:02;13.50;99.90
10278;DHT22;5184;51.376;7.148;2023-05-10T07:54:29;13.40;99.90
10278;DHT22;5184;51.376;7.148;2023-05-10T07:56:56;13.20;99.90
10278;DHT22;5184;51.376;7.148;2023-05-10T07:59:23;13.20;99.90
10278;DHT22;5184;51.376;7.148;2023-05-10T08:01:50;13.20;99.90
10278;DHT22;5184;51.376;7.148;2023-05-10T08:04:17;13.10;99.90
10278;DHT22;5184;51.376;7.148;2023-05-10T08:06:43;13.20;99.90
10278;DHT22;5184;51.376;7.148;2023-05-10T08:09:11;13.30;99.90
10278;DHT22;5184;51.376;7.148;2023-05-10T08:11:37;13.30;99.90
10278;DHT22;5184;51.376;7.148;2023-05-10T08:14:04;13.30;99.90
10278;DHT22;5184;51.376;7.148;2023-05-10T08:16:30;13.40;99.90
10278;DHT22;5184;51.376;7.148;2023-05-10T08:18:58;13.60;99.90
10278;DHT22;5184;51.376;7.148;2023-05-10T08:21:25;13.60;99.90
10278;DHT22;5184;51.376;7.148;2023-05-10T08:23:52;13.60;99.90
10278;DHT22;5184;51.376;7.148;2023-05-10T08:26:18;13.80;99.90
10278;DHT22;5184;51.376;7.148;2023-05-10T08:28:45;14.00;99.90
10278;DHT22;5184;51.376;7.148;2023-05-10T08:31:12;14.10;99.90
10278;DHT22;5184;51.376;7.148;2023-05-10T08:33:39;14.10;99.90
10278;DHT22;5184;51.376;7.148;2023-05-10T08:36:06;14.00;99.90
10278;DHT22;5184;51.376;7.148;2023-05-10T08:38:33;14.00;99.90
10278;DHT22;5184;51.376;7.148;2023-05-10T08:41:02;14.00;99.90
10278;DHT22;5184;51.376;7.148;2023-05-10T08:43:28;14.00;99.90
10278;DHT22;5184;51.376;7.148;2023-05-10T08:45:54;14.10;99.90
10278;DHT22;5184;51.376;7.148;2023-05-10T08:48:21;14.00;99.90
10278;DHT22;5184;51.376;7.148;2023-05-10T08:50:48;14.20;99.90
10278;DHT22;5184;51.376;7.148;2023-05-10T08:53:15;14.30;99.90
10278;DHT22;5184;51.376;7.148;2023-05-10T08:55:43;14.30;99.90
10278;DHT22;5184;51.376;7.148;2023-05-10T08:58:10;14.50;99.90
10278;DHT22;5184;51.376;7.148;2023-05-10T09:00:37;14.50;99.90
10278;DHT22;5184;51.376;7.148;2023-05-10T09:03:04;14.60;99.90
10278;DHT22;5184;51.376;7.148;2023-05-10T09:05:30;14.60;1.00
10278;DHT22;5184;51.376;7.148;2023-05-10T09:07:57;14.50;1.00
10278;DHT22;5184;51.376;7.148;2023-05-10T09:10:25;14.50;1.00
10278;DHT22;5184;51.376;7.148;2023-05-10T09:12:51;14.70;31.10
10278;DHT22;5184;51.376;7.148;2023-05-10T09:15:18;14.80;36.90
10278;DHT22;5184;51.376;7.148;2023-05-10T09:17:45;14.70;1.00
10278;DHT22;5184;51.376;7.148;2023-05-10T09:20:12;14.70;1.00
10278;DHT22;5184;51.376;7.148;2023-05-10T09:22:38;14.70;99.90
10278;DHT22;5184;51.376;7.148;2023-05-10T09:25:07;14.80;1.00
10278;DHT22;5184;51.376;7.148;2023-05-10T09:27:34;14.80;99.90
10278;DHT22;5184;51.376;7.148;2023-05-10T09:30:01;14.60;99.90
10278;DHT22;5184;51.376;7.148;2023-05-10T09:32:37;14.70;99.90
10278;DHT22;5184;51.376;7.148;2023-05-10T09:35:09;14.70;99.90
10278;DHT22;5184;51.376;7.148;2023-05-10T09:37:35;14.60;99.90
10278;DHT22;5184;51.376;7.148;2023-05-10T09:40:04;14.70;1.00
10278;DHT22;5184;51.376;7.148;2023-05-10T09:42:28;14.80;1.00
10278;DHT22;5184;51.376;7.148;2023-05-10T09:44:59;14.80;1.00
10278;DHT22;5184;51.376;7.148;2023-05-10T09:47:23;14.90;1.00
10278;DHT22;5184;51.376;7.148;2023-05-10T09:49:50;14.90;1.00
10278;DHT22;5184;51.376;7.148;2023-05-10T09:52:16;15.00;99.90
10278;DHT22;5184;51.376;7.148;2023-05-10T09:54:52;15.00;99.90
10278;DHT22;5184;51.376;7.148;2023-05-10T09:57:20;15.00;1.00
10278;DHT22;5184;51.376;7.148;2023-05-10T09:59:46;14.90;1.00
10278;DHT22;5184;51.376;7.148;2023-05-10T10:02:12;14.70;99.90
10278;DHT22;5184;51.376;7.148;2023-05-10T10:04:39;14.60;99.90
10278;DHT22;5184;51.376;7.148;2023-05-10T10:07:06;14.60;1.00
10278;DHT22;5184;51.376;7.148;2023-05-10T10:09:33;14.20;99.90
10278;DHT22;5184;51.376;7.148;2023-05-10T10:12:01;14.20;99.90
10278;DHT22;5184;51.376;7.148;2023-05-10T10:14:28;14.10;1.00
10278;DHT22;5184;51.376;7.148;2023-05-10T10:16:54;14.20;99.90
10278;DHT22;5184;51.376;7.148;2023-05-10T10:19:22;14.40;99.90
10278;DHT22;5184;51.376;7.148;2023-05-10T10:21:49;14.40;99.90
10278;DHT22;5184;51.376;7.148;2023-05-10T10:24:17;14.80;99.90
10278;DHT22;5184;51.376;7.148;2023-05-10T10:26:44;15.00;1.00
10278;DHT22;5184;51.376;7.148;2023-05-10T10:29:26;15.00;1.00
10278;DHT22;5184;51.376;7.148;2023-05-10T10:34:38;15.10;99.90
10278;DHT22;5184;51.376;7.148;2023-05-10T10:37:05;15.20;1.00
10278;DHT22;5184;51.376;7.148;2023-05-10T10:39:31;15.20;1.00
10278;DHT22;5184;51.376;7.148;2023-05-10T10:41:58;15.20;1.00
10278;DHT22;5184;51.376;7.148;2023-05-10T10:47:25;14.90;99.90
10278;DHT22;5184;51.376;7.148;2023-05-10T10:50:07;15.00;99.90
10278;DHT22;5184;51.376;7.148;2023-05-10T10:52:36;14.90;1.00
10278;DHT22;5184;51.376;7.148;2023-05-10T10:55:10;14.90;99.90
10278;DHT22;5184;51.376;7.148;2023-05-10T11:00:29;15.30;1.00
10278;DHT22;5184;51.376;7.148;2023-05-10T11:03:06;15.30;1.00
10278;DHT22;5184;51.376;7.148;2023-05-10T11:05:41;15.40;1.00
10278;DHT22;5184;51.376;7.148;2023-05-10T11:08:10;15.40;1.00
10278;DHT22;5184;51.376;7.148;2023-05-10T11:10:36;15.40;1.00
10278;DHT22;5184;51.376;7.148;2023-05-10T11:13:06;15.40;99.90
10278;DHT22;5184;51.376;7.148;2023-05-10T11:15:33;15.40;1.00
10278;DHT22;5184;51.376;7.148;2023-05-10T11:17:59;15.40;1.00
10278;DHT22;5184;51.376;7.148;2023-05-10T11:20:27;15.20;1.00
10278;DHT22;5184;51.376;7.148;2023-05-10T11:22:54;15.20;1.00
10278;DHT22;5184;51.376;7.148;2023-05-10T11:25:26;15.10;1.00
10278;DHT22;5184;51.376;7.148;2023-05-10T11:27:48;14.90;1.00
10278;DHT22;5184;51.376;7.148;2023-05-10T11:30:15;14.90;53.60
10278;DHT22;5184;51.376;7.148;2023-05-10T11:32:42;15.00;1.00
10278;DHT22;5184;51.376;7.148;2023-05-10T11:35:10;14.90;99.90
10278;DHT22;5184;51.376;7.148;2023-05-10T11:37:37;14.90;99.90
10278;DHT22;5184;51.376;7.148;2023-05-10T11:40:03;14.90;1.00
10278;DHT22;5184;51.376;7.148;2023-05-10T11:42:30;15.10;1.00
10278;DHT22;5184;51.376;7.148;2023-05-10T11:44:56;15.40;99.90
10278;DHT22;5184;51.376;7.148;2023-05-10T11:47:23;15.60;99.90
10278;DHT22;5184;51.376;7.148;2023-05-10T11:49:50;15.70;99.90
10278;DHT22;5184;51.376;7.148;2023-05-10T11:52:18;15.70;99.90
10278;DHT22;5184;51.376;7.148;2023-05-10T11:54:50;15.70;1.00
10278;DHT22;5184;51.376;7.148;2023-05-10T11:57:12;15.60;99.90
10278;DHT22;5184;51.376;7.148;2023-05-10T11:59:39;15.50;99.90
10278;DHT22;5184;51.376;7.148;2023-05-10T12:02:05;15.30;1.00
10278;DHT22;5184;51.376;7.148;2023-05-10T12:04:32;15.20;1.00
10278;DHT22;5184;51.376;7.148;2023-05-10T12:06:59;15.20;1.00
10278;DHT22;5184;51.376;7.148;2023-05-10T12:09:25;15.30;1.00
10278;DHT22;5184;51.376;7.148;2023-05-10T12:11:55;15.50;99.90
10278;DHT22;5184;51.376;7.148;2023-05-10T12:14:19;15.50;99.90
10278;DHT22;5184;51.376;7.148;2023-05-10T12:16:46;15.70;1.00
10278;DHT22;5184;51.376;7.148;2023-05-10T12:19:12;15.80;1.00
10278;DHT22;5184;51.376;7.148;2023-05-10T12:21:40;15.90;1.00
10278;DHT22;5184;51.376;7.148;2023-05-10T12:24:07;16.00;99.90
10278;DHT22;5184;51.376;7.148;2023-05-10T12:26:34;16.10;1.00
10278;DHT22;5184;51.376;7.148;2023-05-10T12:29:13;16.00;1.00
10278;DHT22;5184;51.376;7.148;2023-05-10T12:31:49;16.10;3.80
10278;DHT22;5184;51.376;7.148;2023-05-10T12:34:25;16.10;10.50
10278;DHT22;5184;51.376;7.148;2023-05-10T12:36:52;16.30;1.00
10278;DHT22;5184;51.376;7.148;2023-05-10T12:39:19;16.70;1.00
10278;DHT22;5184;51.376;7.148;2023-05-10T12:41:46;16.60;1.00
10278;DHT22;5184;51.376;7.148;2023-05-10T12:44:14;16.30;1.00
10278;DHT22;5184;51.376;7.148;2023-05-10T12:46:40;16.30;1.00
10278;DHT22;5184;51.376;7.148;2023-05-10T12:49:07;16.10;10.60
10278;DHT22;5184;51.376;7.148;2023-05-10T12:51:34;16.10;99.90
10278;DHT22;5184;51.376;7.148;2023-05-10T12:54:02;15.60;1.00
10278;DHT22;5184;51.376;7.148;2023-05-10T12:56:28;15.60;99.90
10278;DHT22;5184;51.376;7.148;2023-05-10T12:58:55;15.60;99.90
10278;DHT22;5184;51.376;7.148;2023-05-10T13:01:21;15.80;1.00
10278;DHT22;5184;51.376;7.148;2023-05-10T13:03:48;16.00;99.90
10278;DHT22;5184;51.376;7.148;2023-05-10T13:06:15;16.60;99.90
10278;DHT22;5184;51.376;7.148;2023-05-10T13:08:43;16.60;1.00
10278;DHT22;5184;51.376;7.148;2023-05-10T13:11:10;16.50;1.00
10278;DHT22;5184;51.376;7.148;2023-05-10T13:13:37;16.50;1.00
10278;DHT22;5184;51.376;7.148;2023-05-10T13:16:05;16.70;95.20
10278;DHT22;5184;51.376;7.148;2023-05-10T13:18:32;16.70;77.60
10278;DHT22;5184;51.376;7.148;2023-05-10T13:20:59;16.80;1.00
10278;DHT22;5184;51.376;7.148;2023-05-10T13:23:27;17.00;1.00
10278;DHT22;5184;51.376;7.148;2023-05-10T13:25:54;17.20;99.90
10278;DHT22;5184;51.376;7.148;2023-05-10T13:28:21;17.20;99.90
10278;DHT22;5184;51.376;7.148;2023-05-10T13:30:47;17.40;24.90
10278;DHT22;5184;51.376;7.148;2023-05-10T13:33:14;17.50;1.00
10278;DHT22;5184;51.376;7.148;2023-05-10T13:35:43;17.60;99.90
10278;DHT22;5184;51.376;7.148;2023-05-10T13:38:10;17.60;99.90
10278;DHT22;5184;51.376;7.148;2023-05-10T13:40:37;17.70;99.90
10278;DHT22;5184;51.376;7.148;2023-05-10T13:43:04;17.70;99.90
10278;DHT22;5184;51.376;7.148;2023-05-10T13:45:31;17.70;1.00
10278;DHT22;5184;51.376;7.148;2023-05-10T13:47:59;17.90;99.90
10278;DHT22;5184;51.376;7.148;2023-05-10T13:50:25;17.80;99.90
10278;DHT22;5184;51.376;7.148;2023-05-10T13:52:52;17.90;1.00
10278;DHT22;5184;51.376;7.148;2023-05-10T13:55:18;17.90;1.00
10278;DHT22;5184;51.376;7.148;2023-05-10T13:57:45;18.00;1.00
10278;DHT22;5184;51.376;7.148;2023-05-10T14:00:12;18.30;99.90
10278;DHT22;5184;51.376;7.148;2023-05-10T14:02:39;18.10;99.90
10278;DHT22;5184;51.376;7.148;2023-05-10T14:05:06;17.80;1.00
10278;DHT22;5184;51.376;7.148;2023-05-10T14:07:33;17.90;1.00
10278;DHT22;5184;51.376;7.148;2023-05-10T14:10:00;17.70;1.00
10278;DHT22;5184;51.376;7.148;2023-05-10T14:12:27;17.60;1.00
10278;DHT22;5184;51.376;7.148;2023-05-10T14:14:54;17.60;1.00
10278;DHT22;5184;51.376;7.148;2023-05-10T14:17:20;17.50;99.90
10278;DHT22;5184;51.376;7.148;2023-05-10T14:19:47;17.50;99.90
10278;DHT22;5184;51.376;7.148;2023-05-10T14:22:13;17.60;1.00
10278;DHT22;5184;51.376;7.148;2023-05-10T14:24:40;17.80;95.40
10278;DHT22;5184;51.376;7.148;2023-05-10T14:27:07;17.80;1.00
10278;DHT22;5184;51.376;7.148;2023-05-10T14:29:34;17.70;99.90
10278;DHT22;5184;51.376;7.148;2023-05-10T14:32:00;17.70;99.90
10278;DHT22;5184;51.376;7.148;2023-05-10T14:34:29;17.70;1.00
10278;DHT22;5184;51.376;7.148;2023-05-10T14:36:56;17.70;99.90
10278;DHT22;5184;51.376;7.148;2023-05-10T14:39:23;17.70;99.90
10278;DHT22;5184;51.376;7.148;2023-05-10T14:41:50;17.70;99.90
10278;DHT22;5184;51.376;7.148;2023-05-10T14:44:16;17.60;1.00
10278;DHT22;5184;51.376;7.148;2023-05-10T14:46:43;17.50;1.00
10278;DHT22;5184;51.376;7.148;2023-05-10T14:49:10;17.60;99.90
10278;DHT22;5184;51.376;7.148;2023-05-10T14:51:36;17.90;99.90
10278;DHT22;5184;51.376;7.148;2023-05-10T14:54:03;18.10;99.90
10278;DHT22;5184;51.376;7.148;2023-05-10T14:56:29;18.10;1.00
10278;DHT22;5184;51.376;7.148;2023-05-10T14:58:56;18.20;1.00
10278;DHT22;5184;51.376;7.148;2023-05-10T15:01:23;18.20;1.00
10278;DHT22;5184;51.376;7.148;2023-05-10T15:03:50;18.50;99.90
10278;DHT22;5184;51.376;7.148;2023-05-10T15:06:17;19.10;99.90
10278;DHT22;5184;51.376;7.148;2023-05-10T15:08:43;19.30;91.40
10278;DHT22;5184;51.376;7.148;2023-05-10T15:11:10;18.80;1.00
10278;DHT22;5184;51.376;7.148;2023-05-10T15:13:38;18.60;1.00
10278;DHT22;5184;51.376;7.148;2023-05-10T15:16:05;18.40;1.00
10278;DHT22;5184;51.376;7.148;2023-05-10T15:18:32;18.40;1.00
10278;DHT22;5184;51.376;7.148;2023-05-10T15:20:58;18.50;99.90
10278;DHT22;5184;51.376;7.148;2023-05-10T15:23:25;18.50;99.90
10278;DHT22;5184;51.376;7.148;2023-05-10T15:25:52;18.80;1.00
10278;DHT22;5184;51.376;7.148;2023-05-10T15:28:20;19.10;99.90
10278;DHT22;5184;51.376;7.148;2023-05-10T15:30:46;19.10;99.90
10278;DHT22;5184;51.376;7.148;2023-05-10T15:33:14;20.50;14.30
10278;DHT22;5184;51.376;7.148;2023-05-10T15:35:40;20.50;8.40
10278;DHT22;5184;51.376;7.148;2023-05-10T15:38:07;20.30;1.00
10278;DHT22;5184;51.376;7.148;2023-05-10T15:40:34;20.20;99.90
10278;DHT22;5184;51.376;7.148;2023-05-10T15:43:00;20.50;1.00
10278;DHT22;5184;51.376;7.148;2023-05-10T15:45:27;20.40;88.60
10278;DHT22;5184;51.376;7.148;2023-05-10T15:47:53;20.10;1.00
10278;DHT22;5184;51.376;7.148;2023-05-10T15:50:20;20.30;89.50
10278;DHT22;5184;51.376;7.148;2023-05-10T15:52:47;20.60;1.00
10278;DHT22;5184;51.376;7.148;2023-05-10T15:55:13;20.60;1.00
10278;DHT22;5184;51.376;7.148;2023-05-10T15:57:41;20.80;1.00
10278;DHT22;5184;51.376;7.148;2023-05-10T16:00:09;20.80;1.00
10278;DHT22;5184;51.376;7.148;2023-05-10T16:02:36;20.10;46.50